Time;durP1;ratioP1;P1;durP2;ratioP2;P2;SDS_P1;SDS_P2;PMS_P1;PMS_P2;Temp;Humidity;BMP_temperature;BMP_pressure;BME280_temperature;BME280_humidity;BME280_pressure;Samples;Min_cycle;Max_cycle;Signal;HPM_P1;HPM_P2
2021/08/21 00:02:23;;;;;;;8.38;5.35;;;;;;;21.60;41.63;93949.69;4974364;28;20089;-74
2021/08/21 00:04:51;;;;;;;6.90;5.45;;;;;;;21.54;42.54;93951.16;4974074;28;20088;-74
2021/08/21 00:07:17;;;;;;;6.13;5.53;;;;;;;21.46;42.31;93947.63;4977085;28;20026;-73
2021/08/21 00:09:43;;;;;;;7.45;5.22;;;;;;;21.33;42.65;93932.88;4966070;28;20093;-75
2021/08/21 00:12:09;;;;;;;7.35;5.57;;;;;;;21.48;42.70;93960.00;4976693;28;20038;-73
2021/08/21 00:14:34;;;;;;;8.73;6.40;;;;;;;21.41;42.93;93945.28;4968171;28;20125;-73
2021/08/21 00:17:01;;;;;;;7.75;6.13;;;;;;;21.25;43.18;93958.34;4975529;28;20026;-74
2021/08/21 00:19:27;;;;;;;6.82;5.95;;;;;;;21.28;42.92;93957.56;4974268;28;20253;-74
2021/08/21 00:21:53;;;;;;;7.05;6.35;;;;;;;21.20;43.15;93956.00;4974772;28;20042;-75
2021/08/21 00:24:18;;;;;;;7.53;5.57;;;;;;;21.32;43.00;93966.50;4974572;28;20042;-73
2021/08/21 00:26:43;;;;;;;5.57;5.07;;;;;;;21.31;42.65;93962.25;4970842;28;20074;-74
2021/08/21 00:29:09;;;;;;;7.78;5.82;;;;;;;21.20;43.25;93961.41;4972163;28;20405;-74
2021/08/21 00:31:34;;;;;;;7.30;5.72;;;;;;;21.21;42.78;93962.19;4974616;28;20022;-74
2021/08/21 00:34:00;;;;;;;6.97;6.28;;;;;;;21.08;43.13;93950.88;4976256;28;20109;-74
2021/08/21 00:36:25;;;;;;;6.85;6.15;;;;;;;21.25;42.77;93973.78;4971748;28;20183;-74
2021/08/21 00:38:51;;;;;;;7.25;5.68;;;;;;;21.11;43.38;93969.06;4970396;28;20038;-74
2021/08/21 00:41:17;;;;;;;5.90;5.20;;;;;;;21.04;43.55;93969.00;4970824;28;20042;-73
2021/08/21 00:43:43;;;;;;;8.50;5.88;;;;;;;20.91;43.64;93960.41;4972433;28;20484;-76
2021/08/21 00:46:08;;;;;;;6.32;5.57;;;;;;;20.93;44.29;93973.53;4971548;28;20459;-74
2021/08/21 00:48:34;;;;;;;6.78;5.72;;;;;;;21.04;43.48;93971.72;4971119;28;20122;-73
2021/08/21 00:51:01;;;;;;;6.50;5.70;;;;;;;20.99;43.96;93966.66;4972347;28;20481;-74
2021/08/21 00:53:31;;;;;;;7.40;5.40;;;;;;;20.95;42.98;93953.09;4969852;28;20042;-74
2021/08/21 00:55:57;;;;;;;9.13;7.35;;;;;;;20.88;43.23;93960.38;4972106;28;20034;-74
2021/08/21 00:58:22;;;;;;;7.25;5.85;;;;;;;20.87;43.61;93973.13;4974171;28;20022;-73
2021/08/21 01:00:49;;;;;;;11.77;6.32;;;;;;;20.73;43.91;93966.81;4974047;28;20057;-74
2021/08/21 01:03:15;;;;;;;10.18;5.80;;;;;;;20.84;43.52;93968.44;4967785;28;20033;-73
2021/08/21 01:05:41;;;;;;;8.10;6.00;;;;;;;20.72;43.92;93957.94;4975353;28;20038;-73
2021/08/21 01:08:06;;;;;;;7.20;5.82;;;;;;;20.69;43.67;93952.47;4971369;28;20041;-74
2021/08/21 01:10:32;;;;;;;9.63;6.35;;;;;;;20.79;43.26;93959.88;4972417;28;20039;-76
2021/08/21 01:12:57;;;;;;;9.45;6.05;;;;;;;20.85;43.47;93971.91;4969578;28;20038;-74
2021/08/21 01:15:24;;;;;;;6.47;5.88;;;;;;;20.72;44.43;93970.66;4975311;28;20141;-75
2021/08/21 01:17:51;;;;;;;6.72;5.93;;;;;;;20.83;43.84;93972.28;4970593;28;20505;-74
2021/08/21 01:20:17;;;;;;;7.47;6.68;;;;;;;20.71;44.04;93977.19;4974712;28;20046;-73
2021/08/21 01:22:42;;;;;;;7.00;6.18;;;;;;;20.77;43.74;93971.09;4973324;28;20321;-74
2021/08/21 01:25:12;;;;;;;6.13;5.55;;;;;;;20.62;44.16;93979.44;4969418;28;20441;-74
2021/08/21 01:27:38;;;;;;;9.35;6.43;;;;;;;20.47;44.56;93963.09;4972850;28;20049;-74
2021/08/21 01:30:04;;;;;;;8.07;5.47;;;;;;;20.67;44.04;93984.50;4971464;28;20042;-74
2021/08/21 01:32:29;;;;;;;6.88;6.25;;;;;;;20.58;44.39;93988.28;4973053;28;20183;-74
2021/08/21 01:34:56;;;;;;;9.07;6.93;;;;;;;20.51;44.57;93985.53;4969539;28;20033;-74
2021/08/21 01:37:23;;;;;;;9.15;6.53;;;;;;;20.56;44.48;93990.59;4972011;28;20114;-74
2021/08/21 01:39:51;;;;;;;7.00;6.30;;;;;;;20.44;44.68;93980.03;4975121;28;20069;-74
2021/08/21 01:42:17;;;;;;;8.23;6.38;;;;;;;20.51;44.22;93985.53;4971718;28;20618;-74
2021/08/21 01:44:43;;;;;;;9.80;6.93;;;;;;;20.58;43.75;93976.72;4973573;28;20034;-74
2021/08/21 01:47:09;;;;;;;7.53;5.80;;;;;;;20.59;43.91;93986.34;4973814;28;21055;-74
2021/08/21 01:49:34;;;;;;;7.85;6.45;;;;;;;20.57;44.49;93983.25;4973045;28;20034;-74
2021/08/21 01:52:01;;;;;;;7.63;6.22;;;;;;;20.55;44.06;93983.63;4971103;28;20043;-73
2021/08/21 01:54:27;;;;;;;12.25;7.90;;;;;;;20.47;44.64;93967.72;4970928;28;20042;-74
2021/08/21 01:56:56;;;;;;;9.45;6.63;;;;;;;20.66;44.70;93991.06;4973921;28;20057;-74
2021/08/21 01:59:42;;;;;;;10.57;7.55;;;;;;;20.55;43.76;93989.03;4971892;28;20092;-73
2021/08/21 02:02:11;;;;;;;10.63;7.32;;;;;;;20.58;44.11;93990.97;4992547;28;20050;-74
2021/08/21 02:04:36;;;;;;;10.15;5.57;;;;;;;20.46;43.95;93977.75;4976590;28;20109;-74
2021/08/21 02:07:02;;;;;;;10.88;6.82;;;;;;;20.55;44.22;93993.66;4976570;28;20049;-75
2021/08/21 02:09:28;;;;;;;13.20;6.63;;;;;;;20.60;44.06;93988.69;4979233;28;20169;-74
2021/08/21 02:11:55;;;;;;;7.93;5.85;;;;;;;20.56;43.83;93987.88;4969482;28;20091;-75
2021/08/21 02:14:21;;;;;;;6.85;6.15;;;;;;;20.58;43.98;93990.97;4990563;28;20030;-74
2021/08/21 02:16:51;;;;;;;8.95;6.00;;;;;;;20.53;44.25;93980.50;4975399;28;20034;-74
2021/08/21 02:19:17;;;;;;;8.75;7.18;;;;;;;20.46;44.08;93983.16;4976841;28;20125;-73
2021/08/21 02:21:43;;;;;;;7.45;6.03;;;;;;;20.48;44.17;93990.91;4977361;28;20058;-73
2021/08/21 02:24:08;;;;;;;8.50;6.43;;;;;;;20.41;45.08;93991.59;4975064;28;20142;-74
2021/08/21 02:26:40;;;;;;;7.00;6.35;;;;;;;20.35;44.30;93978.78;4978289;28;20166;-74
2021/08/21 02:29:09;;;;;;;9.52;6.90;;;;;;;20.15;43.97;93945.75;4973467;28;20132;-74
2021/08/21 02:31:34;;;;;;;8.98;7.43;;;;;;;20.47;44.41;93990.13;4975735;28;20493;-74
2021/08/21 02:34:00;;;;;;;11.20;6.53;;;;;;;20.33;44.04;93979.16;4975742;28;20045;-74
2021/08/21 02:36:25;;;;;;;7.75;6.95;;;;;;;20.34;43.92;93979.91;4971546;28;20121;-73
2021/08/21 02:38:51;;;;;;;7.93;6.70;;;;;;;20.40;44.22;93986.56;4976167;28;20043;-73
2021/08/21 02:41:17;;;;;;;7.30;6.50;;;;;;;20.20;44.27;93967.06;4970157;28;20208;-74
2021/08/21 02:43:42;;;;;;;7.80;6.97;;;;;;;20.26;44.74;93991.81;4974736;28;20026;-74
2021/08/21 02:46:08;;;;;;;7.75;6.25;;;;;;;20.25;44.80;93988.31;4976874;28;20034;-75
2021/08/21 02:48:33;;;;;;;8.65;7.00;;;;;;;20.20;44.54;93985.97;4989822;28;20638;-74
2021/08/21 02:50:58;;;;;;;10.95;7.82;;;;;;;20.24;44.53;93997.56;4975192;28;20050;-74
2021/08/21 02:53:24;;;;;;;7.63;6.82;;;;;;;20.07;44.78;93982.72;4975578;28;20768;-73
2021/08/21 02:55:49;;;;;;;7.57;6.80;;;;;;;20.17;45.06;93997.50;4976483;28;20096;-73
2021/08/21 02:58:15;;;;;;;6.63;5.80;;;;;;;20.01;44.67;93994.19;4972538;28;20473;-73
2021/08/21 03:00:41;;;;;;;9.02;7.40;;;;;;;19.87;45.25;93994.03;4978595;28;20046;-74
2021/08/21 03:03:08;;;;;;;9.40;7.05;;;;;;;19.91;45.53;94005.66;4974159;28;20082;-75
2021/08/21 03:05:34;;;;;;;11.25;7.35;;;;;;;19.98;45.58;93992.25;4977026;28;20113;-74
2021/08/21 03:07:59;;;;;;;10.15;7.65;;;;;;;19.94;45.14;94000.31;4973385;28;20029;-75
2021/08/21 03:10:24;;;;;;;8.75;7.50;;;;;;;20.02;44.96;94001.16;4989866;28;20438;-74
2021/08/21 03:12:50;;;;;;;10.85;8.38;;;;;;;20.02;45.37;94014.66;4976462;28;20413;-75
2021/08/21 03:15:15;;;;;;;11.82;7.70;;;;;;;19.89;45.90;94008.72;4975520;28;20180;-74
2021/08/21 03:17:41;;;;;;;10.32;7.38;;;;;;;19.84;45.79;94008.25;4977742;28;20332;-74
2021/08/21 03:20:07;;;;;;;14.80;7.53;;;;;;;19.67;46.31;93993.38;4975481;28;20035;-74
2021/08/21 03:22:33;;;;;;;13.88;8.40;;;;;;;19.79;45.93;94013.97;4977243;28;20431;-74
2021/08/21 03:24:58;;;;;;;18.05;8.90;;;;;;;19.82;46.04;94013.25;4974467;28;20038;-74
2021/08/21 03:27:23;;;;;;;11.00;8.32;;;;;;;19.79;46.05;94005.88;4974543;28;20050;-74
2021/08/21 03:29:49;;;;;;;8.52;7.50;;;;;;;19.82;45.73;94018.63;4971116;28;20038;-73
2021/08/21 03:32:17;;;;;;;10.13;8.27;;;;;;;19.80;45.86;94016.28;4976915;28;20034;-73
2021/08/21 03:34:43;;;;;;;8.07;7.28;;;;;;;19.65;45.50;94003.78;4976053;28;20448;-75
2021/08/21 03:37:11;;;;;;;11.75;7.97;;;;;;;19.59;46.11;94008.72;4977614;28;20038;-74
2021/08/21 03:39:38;;;;;;;9.88;8.18;;;;;;;19.63;46.20;94023.03;4976015;28;20035;-73
2021/08/21 03:42:04;;;;;;;8.82;6.97;;;;;;;19.74;45.83;94023.19;4977050;28;20313;-75
2021/08/21 03:44:29;;;;;;;8.75;7.90;;;;;;;19.53;46.17;94014.78;4976059;28;20503;-74
2021/08/21 03:46:55;;;;;;;14.93;8.63;;;;;;;19.53;46.51;94031.75;4971126;28;20045;-75
2021/08/21 03:49:20;;;;;;;9.85;7.47;;;;;;;19.22;46.50;93991.56;4976811;28;20435;-73
2021/08/21 03:51:46;;;;;;;12.32;7.93;;;;;;;19.51;46.41;94025.94;4978549;28;20050;-73
2021/08/21 03:54:11;;;;;;;11.70;8.07;;;;;;;19.44;46.42;94019.63;4975153;28;20710;-73
2021/08/21 03:56:37;;;;;;;12.55;7.78;;;;;;;19.51;46.38;94023.22;4973481;28;20039;-73
2021/08/21 03:59:04;;;;;;;13.07;7.65;;;;;;;19.47;46.31;94017.00;4972418;28;20495;-73
2021/08/21 04:01:29;;;;;;;12.15;8.23;;;;;;;19.51;46.99;94039.41;4974405;28;20034;-73
2021/08/21 04:03:55;;;;;;;9.00;8.10;;;;;;;19.30;47.87;94037.19;4972832;28;20034;-73
2021/08/21 04:06:20;;;;;;;9.38;8.10;;;;;;;19.17;47.71;94043.88;4972684;28;20045;-73
2021/08/21 04:08:46;;;;;;;9.70;7.95;;;;;;;19.24;47.62;94051.31;4976040;28;20057;-73
2021/08/21 04:11:11;;;;;;;9.02;7.70;;;;;;;19.24;48.16;94048.63;4975560;28;20235;-73
2021/08/21 04:13:37;;;;;;;10.38;9.25;;;;;;;19.11;47.76;94034.56;4975521;28;20029;-73
2021/08/21 04:16:02;;;;;;;13.27;8.13;;;;;;;19.22;48.48;94045.50;4972003;28;20066;-73
2021/08/21 04:18:28;;;;;;;9.43;7.93;;;;;;;19.27;47.80;94045.19;4973136;28;20088;-73
2021/08/21 04:20:53;;;;;;;9.93;8.20;;;;;;;19.31;47.65;94048.75;4970239;28;20744;-73
2021/08/21 04:23:20;;;;;;;11.32;8.57;;;;;;;19.45;47.93;94057.06;4974554;28;20038;-73
2021/08/21 04:25:45;;;;;;;11.10;8.45;;;;;;;19.35;47.93;94038.78;4971870;28;20641;-73
2021/08/21 04:28:11;;;;;;;13.35;9.60;;;;;;;19.52;47.15;94059.09;4976303;28;20046;-73
2021/08/21 04:30:36;;;;;;;11.70;8.80;;;;;;;19.64;46.43;94056.97;4973218;28;20044;-74
2021/08/21 04:33:02;;;;;;;9.98;8.90;;;;;;;19.64;46.16;94040.00;4971731;28;20124;-73
2021/08/21 04:35:27;;;;;;;11.25;10.10;;;;;;;19.82;46.26;94034.84;4975560;28;20427;-73
2021/08/21 04:37:52;;;;;;;10.77;8.82;;;;;;;20.09;45.54;94066.06;4974230;28;20034;-74
2021/08/21 04:40:20;;;;;;;11.00;9.65;;;;;;;20.15;45.02;94053.75;4977578;28;20018;-73
2021/08/21 04:42:46;;;;;;;10.07;8.85;;;;;;;20.26;45.05;94073.59;4968919;28;20050;-73
2021/08/21 04:45:12;;;;;;;11.95;9.65;;;;;;;20.12;44.94;94054.50;4973240;28;20034;-73
2021/08/21 04:47:38;;;;;;;14.52;9.50;;;;;;;20.26;45.09;94070.13;4968238;28;20050;-73
2021/08/21 04:50:05;;;;;;;11.93;8.55;;;;;;;20.44;44.61;94066.47;4968303;28;20414;-73
2021/08/21 04:52:30;;;;;;;15.82;9.15;;;;;;;20.45;44.61;94068.03;4969003;28;20033;-73
2021/08/21 04:54:56;;;;;;;11.02;8.52;;;;;;;20.56;44.65;94068.94;4969793;28;20046;-74
2021/08/21 04:57:22;;;;;;;12.48;8.48;;;;;;;20.53;44.67;94069.66;4969249;28;20042;-73
2021/08/21 04:59:47;;;;;;;11.15;8.60;;;;;;;20.62;43.79;94068.63;4971094;28;20079;-74
2021/08/21 05:02:13;;;;;;;12.90;8.90;;;;;;;20.68;43.48;94065.19;4970983;28;20076;-73
2021/08/21 05:04:39;;;;;;;9.40;7.78;;;;;;;20.82;43.44;94064.56;4976242;28;20440;-73
2021/08/21 05:07:04;;;;;;;13.52;9.60;;;;;;;20.75;43.85;94070.69;4972247;28;20046;-74
2021/08/21 05:09:29;;;;;;;10.77;9.23;;;;;;;20.71;43.81;94053.66;4974009;28;20038;-74
2021/08/21 05:11:55;;;;;;;11.07;9.50;;;;;;;20.77;43.27;94067.63;4974132;28;20484;-73
2021/08/21 05:14:20;;;;;;;14.02;8.73;;;;;;;20.84;43.55;94078.47;4972880;28;20148;-73
2021/08/21 05:16:46;;;;;;;10.90;8.40;;;;;;;20.94;43.02;94075.91;4967562;28;20029;-73
2021/08/21 05:19:39;;;;;;;9.65;7.90;;;;;;;20.94;42.95;94078.63;4968904;28;20225;-76
2021/08/21 05:22:21;;;;;;;11.10;8.23;;;;;;;20.84;43.23;94083.88;4969965;28;20048;-74
2021/08/21 05:24:46;;;;;;;14.75;8.65;;;;;;;20.88;43.08;94076.63;4971492;28;20038;-74
2021/08/21 05:27:12;;;;;;;10.52;9.27;;;;;;;20.88;42.75;94084.72;4969728;28;20042;-74
2021/08/21 05:29:37;;;;;;;12.70;8.88;;;;;;;20.81;42.80;94074.59;4968419;28;20039;-73
2021/08/21 05:32:05;;;;;;;12.98;9.63;;;;;;;20.80;42.68;94061.44;4973300;28;20030;-73
2021/08/21 05:34:30;;;;;;;12.88;8.93;;;;;;;20.92;42.83;94074.75;4975958;28;20046;-73
2021/08/21 05:36:56;;;;;;;13.93;9.02;;;;;;;20.93;42.46;94081.69;4972239;28;21093;-73
2021/08/21 05:39:21;;;;;;;12.40;9.43;;;;;;;20.94;42.85;94078.63;4978102;28;20038;-73
2021/08/21 05:41:47;;;;;;;11.25;9.15;;;;;;;20.86;42.97;94066.16;4979225;28;20042;-74
2021/08/21 05:44:12;;;;;;;12.00;9.27;;;;;;;20.98;42.60;94067.81;4977522;28;20564;-73
2021/08/21 05:46:38;;;;;;;13.43;9.18;;;;;;;21.07;42.99;94086.47;4981142;28;20401;-73
2021/08/21 05:49:03;;;;;;;14.45;9.48;;;;;;;20.98;43.10;94084.81;4974861;28;20038;-73
2021/08/21 05:51:29;;;;;;;12.68;8.95;;;;;;;21.22;42.16;94090.81;4978772;28;20137;-74
2021/08/21 05:53:58;;;;;;;14.57;10.32;;;;;;;21.28;42.05;94086.63;4976731;28;20064;-74
2021/08/21 05:56:24;;;;;;;13.35;10.10;;;;;;;21.16;42.08;94085.00;4977870;28;20038;-74
2021/08/21 05:58:50;;;;;;;12.30;9.57;;;;;;;21.28;41.69;94086.63;4978690;28;20050;-73
2021/08/21 06:01:16;;;;;;;12.27;9.55;;;;;;;21.30;41.69;94084.34;4977177;28;20101;-73
2021/08/21 06:03:41;;;;;;;15.52;9.45;;;;;;;21.35;41.93;94082.06;4977670;28;20077;-74
2021/08/21 06:06:11;;;;;;;12.93;10.00;;;;;;;21.37;41.92;94079.75;4979511;28;20034;-72
2021/08/21 06:08:37;;;;;;;11.88;9.25;;;;;;;21.40;42.21;94084.44;4978542;28;20046;-73
2021/08/21 06:11:02;;;;;;;13.35;10.43;;;;;;;21.12;41.77;94073.34;4993918;28;20042;-73
2021/08/21 06:13:27;;;;;;;13.30;9.10;;;;;;;21.06;42.19;94069.47;4977563;28;20069;-73
2021/08/21 06:15:53;;;;;;;13.02;9.10;;;;;;;21.23;42.00;94087.75;4979232;28;20035;-73
2021/08/21 06:18:18;;;;;;;14.02;9.43;;;;;;;21.35;41.60;94087.50;4980772;28;20425;-73
2021/08/21 06:20:44;;;;;;;11.23;8.15;;;;;;;21.49;41.95;94080.63;4978742;28;20080;-74
2021/08/21 06:23:09;;;;;;;13.05;9.60;;;;;;;21.67;41.20;94079.63;4980622;28;20042;-73
2021/08/21 06:25:34;;;;;;;10.70;8.40;;;;;;;21.77;41.01;94078.13;4976646;28;20436;-73
2021/08/21 06:28:00;;;;;;;16.33;9.07;;;;;;;21.84;41.12;94080.91;4979899;28;20034;-73
2021/08/21 06:30:25;;;;;;;9.27;8.38;;;;;;;21.68;41.19;94067.66;4973841;28;20497;-74
2021/08/21 06:32:51;;;;;;;12.00;8.48;;;;;;;21.71;42.47;94080.41;4976603;28;20065;-73
2021/08/21 06:35:16;;;;;;;10.27;8.43;;;;;;;21.80;41.52;94061.16;4974129;28;20414;-73
2021/08/21 06:37:42;;;;;;;13.02;8.05;;;;;;;22.01;41.60;94069.38;4978311;28;20448;-74
2021/08/21 06:40:08;;;;;;;14.80;7.88;;;;;;;21.91;40.01;94059.25;4978599;28;20042;-73
2021/08/21 06:42:33;;;;;;;14.48;6.80;;;;;;;22.25;39.77;94065.25;4978429;28;20540;-73
2021/08/21 06:44:58;;;;;;;15.48;7.35;;;;;;;22.35;39.90;94069.16;4977516;28;20050;-73
2021/08/21 06:47:24;;;;;;;11.93;6.90;;;;;;;22.37;39.68;94069.56;4978470;28;20045;-73
2021/08/21 06:49:49;;;;;;;12.75;6.47;;;;;;;22.14;39.77;94069.84;4979836;28;20485;-73
2021/08/21 06:52:15;;;;;;;10.65;7.13;;;;;;;22.32;40.55;94061.81;4977876;28;20077;-73
2021/08/21 06:54:40;;;;;;;7.25;6.40;;;;;;;22.53;39.18;94061.91;4975509;28;20038;-75
2021/08/21 06:57:05;;;;;;;12.25;5.72;;;;;;;22.78;39.01;94070.84;4976499;28;20567;-73
2021/08/21 06:59:31;;;;;;;9.85;6.20;;;;;;;22.88;38.67;94078.25;4979842;28;20054;-73
2021/08/21 07:01:56;;;;;;;8.75;5.88;;;;;;;22.80;38.05;94065.81;4977699;28;20030;-73
2021/08/21 07:04:22;;;;;;;12.40;6.03;;;;;;;22.87;37.97;94073.25;4978049;28;20397;-74
2021/08/21 07:06:47;;;;;;;7.20;5.53;;;;;;;23.10;38.63;94074.44;4976860;28;20045;-74
2021/08/21 07:09:12;;;;;;;9.10;4.50;;;;;;;23.16;37.40;94072.13;4977400;28;20412;-74
2021/08/21 07:11:38;;;;;;;7.50;5.07;;;;;;;23.09;37.58;94067.47;4975164;28;20045;-73
2021/08/21 07:14:03;;;;;;;8.40;4.93;;;;;;;23.21;38.16;94068.25;4976320;28;20061;-74
2021/08/21 07:16:28;;;;;;;6.75;4.75;;;;;;;23.21;37.54;94060.09;4977944;28;20497;-73
2021/08/21 07:18:54;;;;;;;7.35;4.45;;;;;;;23.12;37.35;94039.53;4976708;28;20057;-73
2021/08/21 07:21:21;;;;;;;4.88;3.67;;;;;;;23.44;36.85;94072.13;4992051;28;20219;-73
2021/08/21 07:23:47;;;;;;;6.32;4.70;;;;;;;23.49;36.36;94063.63;4974237;28;20031;-75
2021/08/21 07:26:12;;;;;;;4.88;4.43;;;;;;;23.63;37.36;94062.81;4974332;28;20101;-73
2021/08/21 07:28:37;;;;;;;9.98;4.72;;;;;;;23.68;35.53;94078.72;4974924;28;20037;-75
2021/08/21 07:31:03;;;;;;;11.90;5.13;;;;;;;23.70;36.74;94079.13;4974835;28;20517;-74
2021/08/21 07:33:28;;;;;;;9.68;4.10;;;;;;;23.85;36.29;94077.94;4976875;28;20125;-75
2021/08/21 07:35:54;;;;;;;8.57;4.75;;;;;;;23.68;35.56;94062.44;4976289;28;20054;-73
2021/08/21 07:38:20;;;;;;;9.88;5.07;;;;;;;23.91;35.42;94079.06;4974080;28;20055;-74
2021/08/21 07:40:45;;;;;;;27.95;6.22;;;;;;;23.98;36.06;94078.28;4976639;28;20060;-74
2021/08/21 07:43:11;;;;;;;7.63;4.28;;;;;;;24.06;35.75;94068.94;4973721;28;20696;-73
2021/08/21 07:45:36;;;;;;;5.80;3.90;;;;;;;24.00;34.86;94076.72;4973257;28;20034;-75
2021/08/21 07:48:02;;;;;;;9.27;3.97;;;;;;;24.03;35.58;94088.75;4975606;28;20051;-73
2021/08/21 07:50:27;;;;;;;6.18;3.83;;;;;;;23.95;36.38;94090.69;4973323;28;20045;-74
2021/08/21 07:52:52;;;;;;;6.90;3.55;;;;;;;24.15;34.96;94093.78;4974676;28;20030;-73
2021/08/21 07:55:18;;;;;;;6.25;4.22;;;;;;;24.12;34.87;94083.72;4973546;28;20029;-73
2021/08/21 07:57:43;;;;;;;5.82;4.43;;;;;;;24.01;35.14;94088.34;4973222;28;20555;-74
2021/08/21 08:00:09;;;;;;;8.88;4.43;;;;;;;24.04;34.93;94097.69;4971284;28;20931;-74
2021/08/21 08:02:35;;;;;;;13.88;5.18;;;;;;;23.99;35.01;94094.22;4975518;28;20038;-74
2021/08/21 08:05:00;;;;;;;11.30;4.47;;;;;;;23.75;35.24;94092.31;4972961;28;20512;-73
2021/08/21 08:07:25;;;;;;;7.57;3.80;;;;;;;24.04;35.25;94092.25;4973766;28;20026;-73
2021/08/21 08:09:51;;;;;;;7.68;4.15;;;;;;;24.19;34.78;94089.16;4971676;28;20532;-74
2021/08/21 08:12:17;;;;;;;6.78;3.90;;;;;;;24.28;34.58;94086.00;4973788;28;20053;-74
2021/08/21 08:14:42;;;;;;;6.13;3.63;;;;;;;24.31;35.60;94090.63;4973523;28;20046;-73
2021/08/21 08:17:08;;;;;;;11.60;4.43;;;;;;;24.24;35.07;94087.97;4972769;28;20556;-74
2021/08/21 08:19:33;;;;;;;6.25;4.22;;;;;;;24.29;35.13;94079.41;4971853;28;20159;-73
2021/08/21 08:21:59;;;;;;;7.32;3.72;;;;;;;24.30;34.88;94079.00;4974256;28;20045;-74
2021/08/21 08:24:25;;;;;;;8.45;4.95;;;;;;;24.40;34.79;94093.72;4974225;28;20106;-73
2021/08/21 08:26:50;;;;;;;9.05;4.20;;;;;;;24.32;34.71;94092.97;4972660;28;20081;-75
2021/08/21 08:29:15;;;;;;;9.93;4.10;;;;;;;24.53;36.10;94086.69;4974427;28;20105;-73
2021/08/21 08:31:41;;;;;;;7.45;4.10;;;;;;;24.53;34.78;94054.06;4972914;28;20586;-74
2021/08/21 08:34:06;;;;;;;8.18;3.75;;;;;;;24.75;34.76;94092.81;4975266;28;20042;-74
2021/08/21 08:36:32;;;;;;;8.15;4.20;;;;;;;24.83;34.58;94095.09;4972249;28;20535;-75
2021/08/21 08:38:57;;;;;;;7.10;4.47;;;;;;;24.85;33.91;94092.75;4975021;28;20038;-74
2021/08/21 08:41:23;;;;;;;7.93;5.32;;;;;;;24.77;34.01;94096.69;4974054;28;20038;-73
2021/08/21 08:43:49;;;;;;;8.95;4.60;;;;;;;24.84;34.06;94096.66;4974643;28;20045;-73
2021/08/21 08:46:18;;;;;;;6.50;3.60;;;;;;;24.64;33.89;94089.34;4972245;28;20039;-74
2021/08/21 08:48:45;;;;;;;5.20;3.20;;;;;;;24.78;34.21;94094.75;4974456;28;20050;-73
2021/08/21 08:51:11;;;;;;;5.45;3.83;;;;;;;24.82;33.55;94076.47;4972322;28;20671;-74
2021/08/21 08:53:36;;;;;;;12.55;4.60;;;;;;;25.00;34.01;94088.00;4974169;28;20133;-74
2021/08/21 08:56:03;;;;;;;5.35;3.75;;;;;;;24.74;33.90;94080.38;4969204;28;20032;-73
2021/08/21 08:58:29;;;;;;;5.45;4.00;;;;;;;24.82;33.51;94079.19;4972978;28;20022;-73
2021/08/21 09:00:54;;;;;;;9.13;4.15;;;;;;;24.98;34.03;94089.59;4973415;28;20532;-73
2021/08/21 09:03:22;;;;;;;5.05;3.92;;;;;;;24.90;33.48;94080.69;4970902;28;20053;-73
2021/08/21 09:05:49;;;;;;;4.57;4.10;;;;;;;24.95;35.25;94079.50;4974012;28;20125;-74
2021/08/21 09:08:27;;;;;;;6.63;4.07;;;;;;;25.04;34.06;94079.81;4972696;28;20374;-73
2021/08/21 09:11:02;;;;;;;5.05;3.97;;;;;;;25.11;33.69;94077.84;4974378;28;20065;-73
2021/08/21 09:13:29;;;;;;;8.27;4.18;;;;;;;25.15;33.63;94075.88;4973664;28;20151;-74
2021/08/21 09:15:59;;;;;;;11.57;4.13;;;;;;;25.03;33.03;94078.28;4973196;28;20038;-73
2021/08/21 09:18:26;;;;;;;8.27;4.20;;;;;;;24.82;33.06;94060.94;4971816;28;20523;-76
2021/08/21 09:20:55;;;;;;;4.15;3.42;;;;;;;25.05;34.06;94073.22;4973330;28;20576;-74
2021/08/21 09:23:22;;;;;;;5.63;4.43;;;;;;;25.19;33.43;94062.22;4970660;28;20105;-73
2021/08/21 09:25:50;;;;;;;6.90;4.28;;;;;;;25.34;35.89;94069.16;4975129;28;20023;-74
2021/08/21 09:28:18;;;;;;;7.32;3.55;;;;;;;25.43;32.76;94064.00;4973550;28;20035;-73
2021/08/21 09:30:44;;;;;;;4.15;3.75;;;;;;;25.34;31.67;94063.69;4969740;28;20525;-73
2021/08/21 09:33:10;;;;;;;6.65;4.20;;;;;;;25.00;31.69;94062.75;4970267;28;20506;-73
2021/08/21 09:35:35;;;;;;;9.85;3.60;;;;;;;25.35;31.94;94062.53;4970627;28;20410;-74
2021/08/21 09:38:02;;;;;;;5.13;3.80;;;;;;;25.34;32.05;94039.19;4972994;28;20026;-74
2021/08/21 09:40:33;;;;;;;5.38;3.80;;;;;;;25.52;31.98;94058.88;4974418;28;20076;-73
2021/08/21 09:42:59;;;;;;;6.65;3.83;;;;;;;25.34;32.05;94049.31;4973943;28;20334;-73
2021/08/21 09:45:25;;;;;;;6.35;3.58;;;;;;;25.24;31.79;94053.63;4971171;28;20473;-74
2021/08/21 09:48:07;;;;;;;4.25;3.75;;;;;;;25.23;31.46;94057.53;4973319;28;20536;-75
2021/08/21 09:50:41;;;;;;;6.75;4.07;;;;;;;25.46;31.92;94054.28;4972234;28;20058;-74
2021/08/21 09:53:08;;;;;;;7.43;3.60;;;;;;;25.66;32.17;94050.56;4976037;28;20686;-74
2021/08/21 09:55:34;;;;;;;4.97;3.72;;;;;;;25.79;30.89;94047.38;4968933;28;20026;-75
2021/08/21 09:58:09;;;;;;;5.75;3.30;;;;;;;25.93;31.21;94039.84;4975414;28;20101;-73
2021/08/21 10:00:37;;;;;;;5.22;3.58;;;;;;;25.98;31.14;94044.06;4970496;28;20038;-74
2021/08/21 10:03:04;;;;;;;9.75;4.47;;;;;;;25.94;31.03;94046.06;4972267;28;20293;-73
2021/08/21 10:05:30;;;;;;;7.45;3.90;;;;;;;26.07;31.12;94052.53;4968483;28;20492;-75
2021/08/21 10:10:35;;;;;;;4.88;4.22;;;;;;;25.87;31.19;94057.00;4973260;28;20061;-75
2021/08/21 10:13:18;;;;;;;4.70;3.92;;;;;;;25.96;30.42;94051.88;4970232;28;20072;-73
2021/08/21 10:15:44;;;;;;;5.38;3.97;;;;;;;25.62;30.54;94046.34;4973360;28;20038;-75
2021/08/21 10:18:10;;;;;;;5.45;3.72;;;;;;;25.97;31.41;94051.47;4975729;28;20485;-72
2021/08/21 10:20:37;;;;;;;4.57;4.18;;;;;;;26.10;31.71;94049.03;4973685;28;20045;-72
2021/08/21 10:23:08;;;;;;;5.47;4.20;;;;;;;25.90;32.13;94045.34;4977007;28;20033;-72
2021/08/21 10:25:36;;;;;;;9.48;3.67;;;;;;;25.91;31.25;94046.91;4974988;28;20026;-73
2021/08/21 10:28:04;;;;;;;7.60;3.90;;;;;;;25.88;30.92;94039.47;4977666;28;20097;-73
2021/08/21 10:30:47;;;;;;;4.95;4.07;;;;;;;25.98;31.13;94023.06;4976219;28;20062;-74
2021/08/21 10:33:13;;;;;;;8.05;3.85;;;;;;;26.18;30.64;94036.84;4979125;28;20085;-73
2021/08/21 10:35:56;;;;;;;7.18;4.80;;;;;;;26.45;30.36;94036.91;4974343;28;20719;-73
2021/08/21 10:38:31;;;;;;;5.45;3.88;;;;;;;26.32;29.67;94044.84;4976426;28;20206;-73
2021/08/21 10:41:21;;;;;;;5.38;3.88;;;;;;;26.40;29.29;94038.13;4976767;28;20037;-73
2021/08/21 10:43:48;;;;;;;5.80;3.80;;;;;;;26.32;29.21;94039.41;4978753;28;20045;-74
2021/08/21 10:46:33;;;;;;;4.80;4.32;;;;;;;26.30;29.60;94036.31;4976425;28;20042;-74
2021/08/21 10:49:00;;;;;;;4.38;3.97;;;;;;;26.23;29.31;94035.63;4976470;28;20448;-73
2021/08/21 10:51:40;;;;;;;4.68;4.28;;;;;;;26.31;29.21;94035.13;4976518;28;20497;-75
2021/08/21 10:54:27;;;;;;;10.68;4.63;;;;;;;26.26;29.44;94030.13;4976586;28;20478;-73
2021/08/21 10:56:54;;;;;;;8.00;4.55;;;;;;;26.12;29.18;94030.28;4989494;28;20125;-73
2021/08/21 10:59:42;;;;;;;4.97;4.15;;;;;;;26.07;29.37;94025.28;4976290;28;20535;-73
2021/08/21 11:02:23;;;;;;;7.35;4.22;;;;;;;26.08;29.01;94027.63;4986503;28;20480;-73
2021/08/21 11:04:48;;;;;;;9.23;4.70;;;;;;;26.22;28.34;94013.03;4975745;28;20030;-73
2021/08/21 11:07:40;;;;;;;4.38;3.97;;;;;;;26.34;28.25;94022.66;4976880;28;20069;-73
2021/08/21 11:10:15;;;;;;;6.15;4.55;;;;;;;26.08;28.44;94015.94;4971379;28;20697;-75
2021/08/21 11:12:44;;;;;;;4.35;3.88;;;;;;;26.22;28.54;94023.94;4977565;28;20055;-74
2021/08/21 11:15:20;;;;;;;5.25;4.75;;;;;;;26.10;28.33;94017.06;4978280;28;20054;-73
2021/08/21 11:17:46;;;;;;;5.70;4.45;;;;;;;26.38;28.90;93998.84;4977363;28;20129;-74
2021/08/21 11:20:31;;;;;;;7.88;4.97;;;;;;;26.51;28.28;94014.25;4978379;28;20036;-73
2021/08/21 11:23:20;;;;;;;9.63;4.50;;;;;;;26.42;28.18;94013.97;4975074;28;20030;-73
2021/08/21 11:25:45;;;;;;;5.57;4.80;;;;;;;26.60;27.93;94018.44;4968145;28;20050;-73
2021/08/21 11:28:24;;;;;;;5.60;4.55;;;;;;;26.73;30.74;94008.53;4979294;28;20122;-73
2021/08/21 11:31:09;;;;;;;5.13;4.68;;;;;;;26.81;29.43;94004.50;4977232;28;20228;-73
2021/08/21 11:33:37;;;;;;;5.43;4.95;;;;;;;26.96;27.03;94005.84;4991680;28;20046;-74
2021/08/21 11:36:04;;;;;;;6.63;5.03;;;;;;;26.86;27.87;94004.03;4977890;28;20045;-74